Weather reports worldwide

Advertisment
Melsom, Norway (1481): temperature & dewpoint: 12.06.2019 04:00:00 - 18.06.2019 04:00:00 (CEST)Melsom, Norway (1481): wind speed & gusts: 12.06.2019 04:00:00 - 18.06.2019 04:00:00 (CEST)Melsom, Norway (1481): wind direction: 12.06.2019 04:00:00 - 18.06.2019 04:00:00 (CEST)Melsom, Norway (1481): reduced air pressure: 12.06.2019 04:00:00 - 18.06.2019 04:00:00 (CEST)Melsom, Norway (1481): precipitation: 12.06.2019 04:00:00 - 18.06.2019 04:00:00 (CEST)
Date & Time tt [°C] td [°C] ff [km/h] ff [kn] fx [km/h] fx [kn] dd ppp [hPa] rr [mm]
18.06.2019 04:00:00 - - - - - - - - -
18.06.2019 03:00:00 12,5 10,9 11 6 19 11 SSW 1016,6 0,0
18.06.2019 02:00:00 12,9 11,5 9 5 - - SSW 1016,8 0,0
18.06.2019 01:00:00 13,0 10,9 9 5 22 12 SSW 1016,8 0,0
18.06.2019 00:00:00 13,3 11,0 10 5 27 15 SSW 1017,0 0,0
17.06.2019 23:00:00 13,7 11,7 14 8 29 16 SSW 1016,9 0,0
17.06.2019 22:00:00 14,1 11,6 14 7 32 17 SSW 1016,4 0,0
17.06.2019 21:00:00 14,9 12,0 11 6 29 15 SSW 1016,4 0,0
17.06.2019 20:00:00 15,0 11,6 16 8 - - SSW 1016,5 0,0
17.06.2019 19:00:00 15,4 12,2 14 8 34 18 SSW 1016,5 0,0
17.06.2019 18:00:00 17,0 12,5 16 8 35 19 SSW 1016,7 0,0
17.06.2019 17:00:00 17,9 12,6 14 8 37 20 S 1016,8 0,0
17.06.2019 16:00:00 18,0 12,5 16 9 33 18 SSW 1017,0 0,0
17.06.2019 15:00:00 17,8 12,3 15 8 35 19 SSW 1017,3 0,0
17.06.2019 14:00:00 17,9 11,7 15 8 - - SSW 1017,4 0,0
17.06.2019 13:00:00 17,3 10,4 16 9 33 18 SSW 1017,5 0,0
17.06.2019 12:00:00 17,0 9,2 16 9 39 21 SSW 1017,2 0,0
17.06.2019 11:00:00 17,3 8,5 16 9 32 17 SSW 1017,0 0,0
17.06.2019 10:00:00 17,8 8,1 11 6 26 14 SW 1016,7 0,0
17.06.2019 09:00:00 16,7 7,6 11 6 27 14 SW 1016,5 0,0
17.06.2019 08:00:00 15,4 8,4 8 5 - - SW 1016,2 0,0
17.06.2019 07:00:00 13,8 8,4 10 5 22 12 SW 1015,9 0,0
17.06.2019 06:00:00 12,3 8,4 6 4 19 10 SSW 1015,6 0,0
17.06.2019 05:00:00 11,2 8,8 9 5 21 12 SSW 1015,4 0,0
17.06.2019 04:00:00 11,6 9,2 9 5 22 12 SSW 1015,0 0,0
17.06.2019 03:00:00 12,2 9,9 11 6 24 13 SSW 1015,0 0,0
17.06.2019 02:00:00 12,5 10,6 10 5 - - SSW 1015,1 0,0
17.06.2019 01:00:00 12,8 11,2 8 5 15 8 SSW 1015,1 0,0
17.06.2019 00:00:00 13,3 11,5 9 5 21 12 SSW 1014,9 0,0
16.06.2019 23:00:00 13,7 11,7 9 5 22 12 S 1014,8 0,0
16.06.2019 22:00:00 14,7 11,7 10 5 20 11 S 1014,7 0,0
16.06.2019 21:00:00 15,5 12,5 10 5 26 14 S 1014,8 0,0
16.06.2019 20:00:00 16,4 12,2 11 6 - - SSW 1014,9 0,0
16.06.2019 19:00:00 17,3 11,4 10 6 26 14 SSW 1014,8 0,0
16.06.2019 18:00:00 18,3 13,2 6 4 16 9 S 1014,7 0,0
16.06.2019 17:00:00 17,3 14,6 8 4 20 11 SSW 1014,9 0,0
16.06.2019 16:00:00 16,6 14,4 8 4 19 10 S 1014,9 0,0
16.06.2019 15:00:00 15,5 14,0 10 5 22 12 SSW 1014,6 0,0
16.06.2019 14:00:00 15,5 14,2 8 4 - - S 1014,3 0,0
16.06.2019 13:00:00 15,6 14,8 6 3 18 10 S 1014,1 0,2
16.06.2019 12:00:00 15,9 14,8 6 3 16 9 S 1013,8 0,0
16.06.2019 11:00:00 17,1 14,4 8 5 18 10 S 1013,7 0,0
16.06.2019 10:00:00 18,1 13,8 5 3 14 8 S 1013,5 0,0
16.06.2019 09:00:00 17,4 13,7 1 1 6 3 SSE 1013,3 0,0
16.06.2019 08:00:00 16,6 15,0 1 0 - - N 1012,9 0,0
16.06.2019 07:00:00 15,6 14,0 2 1 4 2 ENE 1012,7 0,2
16.06.2019 06:00:00 15,9 13,7 1 0 4 2 NW 1012,9 0,0
16.06.2019 05:00:00 16,0 13,7 1 1 6 3 ENE 1012,8 0,0
16.06.2019 04:00:00 16,3 13,6 1 0 5 3 NNE 1012,8 0,0
16.06.2019 03:00:00 17,0 12,9 3 2 9 5 N 1012,5 0,0
16.06.2019 02:00:00 17,4 12,5 3 2 - - N 1013,4 0,0
16.06.2019 01:00:00 17,4 12,5 1 1 11 6 ESE 1014,2 0,0
16.06.2019 00:00:00 17,7 13,0 5 3 11 6 SSW 1014,1 0,0
15.06.2019 23:00:00 18,2 13,5 5 3 14 8 S 1013,8 0,0
15.06.2019 22:00:00 19,1 13,5 0 0 8 5 N 1013,9 0,0
15.06.2019 21:00:00 21,1 14,7 3 1 15 8 SW 1014,3 0,0
15.06.2019 20:00:00 22,8 12,4 0 0 - - N 1014,1 0,0
15.06.2019 19:00:00 23,7 12,0 0 0 6 4 N 1014,4 0,0
15.06.2019 18:00:00 23,8 11,8 3 1 11 6 E 1014,8 0,0
15.06.2019 17:00:00 24,2 12,5 6 3 16 8 NNE 1015,3 0,0
15.06.2019 16:00:00 23,2 12,2 6 3 23 12 NE 1015,8 0,0
15.06.2019 15:00:00 23,9 12,2 9 5 24 13 NE 1016,3 0,0
15.06.2019 14:00:00 23,1 11,5 11 6 - - NNE 1016,9 0,0
15.06.2019 13:00:00 22,2 12,2 10 5 22 12 NE 1017,2 0,0
15.06.2019 12:00:00 20,6 11,0 9 5 17 9 NE 1018,6 0,0
15.06.2019 11:00:00 20,1 11,3 8 4 17 9 NE 1018,5 0,0
15.06.2019 10:00:00 19,1 11,7 7 4 14 8 NE 1018,9 0,0
15.06.2019 09:00:00 17,8 12,7 7 4 13 7 NE 1019,2 0,0
15.06.2019 08:00:00 16,0 12,7 6 3 - - N 1018,8 0,0
15.06.2019 07:00:00 13,7 11,7 3 2 9 5 NNW 1019,4 0,0
15.06.2019 06:00:00 11,7 11,2 3 2 6 4 N 1019,5 0,0
15.06.2019 05:00:00 10,8 10,3 2 1 7 4 NNE 1019,6 0,0
15.06.2019 04:00:00 11,0 10,4 1 1 3 2 N 1019,8 0,0
15.06.2019 03:00:00 11,5 10,9 0 0 7 4 N 1019,7 0,0
15.06.2019 02:00:00 12,4 11,8 0 0 - - N 1019,9 0,0
15.06.2019 01:00:00 12,4 11,8 1 1 3 2 N 1020,1 0,0
15.06.2019 00:00:00 13,0 12,2 2 1 4 2 NNE 1019,4 0,0
14.06.2019 23:00:00 13,4 12,5 1 1 5 3 NNW 1019,5 0,0
14.06.2019 22:00:00 14,1 12,7 4 2 10 5 S 1019,1 0,0
14.06.2019 21:00:00 15,4 12,4 4 2 13 7 S 1019,1 0,0
14.06.2019 20:00:00 16,4 11,6 6 3 - - S 1019,0 0,0
14.06.2019 19:00:00 18,0 12,0 6 4 16 9 S 1018,7 0,0
14.06.2019 18:00:00 18,3 12,7 8 4 19 11 S 1018,7 0,0
14.06.2019 17:00:00 18,6 12,1 9 5 20 11 S 1019,1 0,0
14.06.2019 16:00:00 17,8 12,7 8 4 21 11 S 1019,3 0,0
14.06.2019 15:00:00 17,9 13,2 8 5 21 11 SSW 1019,1 0,0
14.06.2019 14:00:00 17,2 13,7 6 3 - - S 1018,9 0,0
14.06.2019 13:00:00 16,7 13,4 3 2 16 9 ESE 1019,1 0,0
14.06.2019 12:00:00 15,3 13,3 5 3 15 8 ENE 1018,9 0,0
14.06.2019 11:00:00 14,9 12,8 4 2 12 7 E 1018,6 0,0
14.06.2019 10:00:00 14,7 12,9 6 3 14 8 NE 1018,2 0,0
14.06.2019 09:00:00 12,6 11,8 5 3 16 9 NE 1018,0 2,1
14.06.2019 08:00:00 12,6 11,5 5 3 - - NE 1017,7 1,1
14.06.2019 07:00:00 12,1 11,3 3 2 11 6 NNW 1017,5 0,0
14.06.2019 06:00:00 10,5 10,0 4 2 9 5 N 1017,4 0,0
14.06.2019 05:00:00 9,6 9,2 3 1 9 5 N 1017,3 0,0
14.06.2019 04:00:00 9,7 9,2 3 2 6 3 NNE 1017,1 0,0
14.06.2019 03:00:00 10,2 9,7 4 2 6 4 NE 1017,2 0,0
14.06.2019 02:00:00 10,5 9,9 3 1 - - NNE 1016,8 0,0
14.06.2019 01:00:00 10,9 10,3 3 2 5 3 N 1016,9 0,0
14.06.2019 00:00:00 11,6 10,7 2 1 9 5 NE 1016,8 0,0
13.06.2019 23:00:00 12,6 11,2 1 0 5 3 NNE 1016,3 0,0
13.06.2019 22:00:00 13,1 11,0 1 1 5 3 NNW 1015,8 0,0
13.06.2019 21:00:00 13,7 10,5 1 1 15 8 S 1015,4 0,0
13.06.2019 20:00:00 14,9 10,3 8 4 - - S 1015,1 0,0
13.06.2019 19:00:00 15,3 10,3 9 5 21 11 S 1014,2 0,0
13.06.2019 18:00:00 15,8 10,8 7 4 17 9 S 1013,6 0,0
13.06.2019 17:00:00 15,6 11,4 8 4 23 13 S 1013,3 0,0
13.06.2019 16:00:00 14,4 11,7 9 5 21 11 S 1012,7 0,0
13.06.2019 15:00:00 13,2 12,3 5 3 13 7 S 1012,4 0,0
13.06.2019 14:00:00 13,0 12,1 2 1 - - WNW 1011,9 0,0
13.06.2019 13:00:00 12,6 11,8 4 2 16 9 N 1011,0 0,0
13.06.2019 12:00:00 12,1 11,2 8 4 19 11 N 1010,5 0,1
13.06.2019 11:00:00 11,6 11,0 7 4 16 9 N 1009,8 0,0
13.06.2019 10:00:00 11,1 10,5 6 4 19 10 NNE 1009,7 0,2
13.06.2019 09:00:00 10,6 10,0 9 5 18 10 N 1009,4 0,3
13.06.2019 08:00:00 10,2 9,4 4 2 - - N 1009,4 0,4
13.06.2019 07:00:00 10,0 9,2 9 5 21 11 N 1009,6 0,4
13.06.2019 06:00:00 10,0 8,9 10 5 25 14 NNE 1010,1 0,5
13.06.2019 05:00:00 9,6 8,8 12 7 30 16 N 1009,1 0,3
13.06.2019 04:00:00 9,5 8,7 13 7 25 14 N 1010,7 0,5
13.06.2019 03:00:00 9,4 8,6 12 6 26 14 N 1012,4 1,7
13.06.2019 02:00:00 9,4 8,5 14 8 - - NNE 1012,4 1,1
13.06.2019 01:00:00 9,5 8,3 15 8 35 19 NNE 1013,9 0,2
13.06.2019 00:00:00 10,1 7,5 12 6 34 18 NNE 1015,0 0,0
12.06.2019 23:00:00 9,9 7,5 14 7 32 17 NNE 1016,3 0,0
12.06.2019 22:00:00 9,7 7,3 13 7 30 16 N 1017,2 0,0
12.06.2019 21:00:00 9,7 7,3 14 8 34 18 N 1017,4 0,0
12.06.2019 20:00:00 10,1 7,2 15 8 - - NNE 1017,9 0,0
12.06.2019 19:00:00 10,4 7,5 14 8 30 16 N 1018,4 0,0
12.06.2019 18:00:00 10,9 7,0 14 8 36 19 NNE 1019,0 0,0
12.06.2019 17:00:00 10,8 7,1 16 9 31 17 N 1019,7 0,0
12.06.2019 16:00:00 10,9 6,9 16 9 35 19 N 1020,1 0,0
12.06.2019 15:00:00 10,8 6,7 16 9 34 19 N 1020,4 0,0
12.06.2019 14:00:00 10,9 6,5 11 6 - - N 1020,9 0,0
12.06.2019 13:00:00 11,3 5,8 15 8 44 24 NNE 1021,2 0,0
12.06.2019 12:00:00 11,8 6,3 21 11 46 25 NNE 1020,0 0,0
12.06.2019 11:00:00 11,2 6,2 16 8 42 23 NNE 1020,8 0,0
12.06.2019 10:00:00 11,6 5,7 16 9 - - NNE 1021,4 0,0
12.06.2019 09:00:00 11,5 5,8 16 8 40 21 NE 1022,2 0,0
12.06.2019 08:00:00 11,5 6,0 17 9 - - NNE 1022,2 0,0
12.06.2019 07:00:00 11,4 7,1 17 9 32 17 NNE 1022,3 0,0
12.06.2019 06:00:00 11,6 7,9 15 8 35 19 N 1022,8 0,0
12.06.2019 05:00:00 11,7 8,6 15 8 37 20 NNE 1022,6 0,1
12.06.2019 04:00:00 11,8 8,5 16 9 36 19 NNE 1023,2 0,0

tt = temperature
td = dewpoint
ff = wind speed
fx = gusts
dd = wind direction
ppp = reduced air pressure
rr = precipitation

Next stations